If you wish to contribute or participate in the discussions about articles you are invited to join SKYbrary as a registered user

 Actions

General Juan N Alvarez International Airport

From SKYbrary Wiki

MMAA
Airport
ICAO: MMAA – IATA: ACA
Summary
Name General Juan N Alvarez International Airport
Region South America and Caribbean
Territory Mexico MX.gif
Location Acapulco, Guerrero
Serving Acapulco
Elevation 4.877 m
16 ft
16 ft4.877 m
Type large airport
Coordinates 16° 45' 25.42" N, 99° 45' 14.23" W
Runways
Designator Length Width Surface ROPS
6/24 1700 m5,577.428 ft
35 m114.829 ft
CON yes/yes
10/28 3302 m10,833.333 ft
45 m147.638 ft
CON yes/yes


METAR
Observation MMAA 251748Z 24013KT 6SM FEW300 27/22 A2991 RMK SLP118 57010 901 8/002 HZY
Station Acapulco / G. Alvarez
Date/Time 25 April 2019 17:48:00
Wind direction 240°
Wind speed 13 kts
Lowest cloud amount few clouds
Temperature 27°C
Dew point 22°C
Humidity 74%
QNH hPa
Weather condition n/a

WX
Tag(s) Cumulonimbus

International airport serving Acapulco, Mexico.

Climatology

Tropical Savanna climate (Köppen climate classification Aw)

Maps

Terrain

Loading map...

Airport Layout

Loading map...


Accidents & Serious Incidents at or in vicinity of MMAA

None on SKYbrary